createdAt,value
2023-05-08T00:01:24.007Z,13.40
2023-05-08T00:03:52.372Z,13.41
2023-05-08T00:06:19.688Z,13.44
2023-05-08T00:08:46.716Z,13.45
2023-05-08T00:11:14.386Z,13.44
2023-05-08T00:13:41.514Z,13.39
2023-05-08T00:16:12.686Z,13.30
2023-05-08T00:18:40.053Z,13.27
2023-05-08T00:21:07.446Z,13.29
2023-05-08T00:23:34.583Z,13.27
2023-05-08T00:26:01.657Z,13.26
2023-05-08T00:28:28.745Z,13.24
2023-05-08T00:30:55.903Z,13.24
2023-05-08T00:33:22.915Z,13.22
2023-05-08T00:35:49.974Z,13.21
2023-05-08T00:38:17.082Z,13.21
2023-05-08T00:40:44.166Z,13.18
2023-05-08T00:43:11.281Z,13.18
2023-05-08T00:45:39.678Z,13.23
2023-05-08T00:48:07.782Z,13.27
2023-05-08T00:50:36.149Z,13.19
2023-05-08T00:53:04.506Z,13.08
2023-05-08T00:55:32.937Z,12.98
2023-05-08T00:58:00.336Z,12.95
2023-05-08T01:00:27.747Z,12.96
2023-05-08T01:02:55.013Z,12.87
2023-05-08T01:05:22.071Z,12.91
2023-05-08T01:07:49.207Z,12.90
2023-05-08T01:10:16.441Z,12.84
2023-05-08T01:13:09.702Z,12.80
2023-05-08T01:15:58.963Z,12.83
2023-05-08T01:18:38.616Z,12.85
2023-05-08T01:21:41.390Z,12.88
2023-05-08T01:24:29.855Z,12.85
2023-05-08T01:27:32.671Z,12.86
2023-05-08T01:30:18.555Z,12.85
2023-05-08T01:32:58.225Z,12.76
2023-05-08T01:35:47.307Z,12.75
2023-05-08T01:38:33.824Z,12.63
2023-05-08T01:41:10.718Z,12.55
2023-05-08T01:44:18.108Z,12.44
2023-05-08T01:46:49.591Z,12.39
2023-05-08T01:49:28.099Z,12.48
2023-05-08T01:52:05.876Z,12.47
2023-05-08T01:54:39.313Z,12.52
2023-05-08T01:57:09.067Z,12.56
2023-05-08T01:59:38.062Z,12.53
2023-05-08T02:02:06.524Z,12.54
2023-05-08T02:04:35.705Z,12.49
2023-05-08T02:07:03.659Z,12.55
2023-05-08T02:09:32.233Z,12.61
2023-05-08T02:12:01.150Z,12.64
2023-05-08T02:14:30.965Z,12.68
2023-05-08T02:17:01.936Z,12.76
2023-05-08T02:19:30.244Z,12.77
2023-05-08T02:21:59.953Z,12.80
2023-05-08T02:24:27.167Z,12.73
2023-05-08T02:26:56.856Z,12.70
2023-05-08T02:29:24.661Z,12.64
2023-05-08T02:31:54.328Z,12.64
2023-05-08T02:34:23.351Z,12.57
2023-05-08T02:36:52.876Z,12.55
2023-05-08T02:39:25.303Z,12.56
2023-05-08T02:41:52.435Z,12.53
2023-05-08T02:44:19.644Z,12.50
2023-05-08T02:46:56.457Z,12.46
2023-05-08T02:49:29.243Z,12.45
2023-05-08T02:52:28.329Z,12.46
2023-05-08T02:55:01.269Z,12.47
2023-05-08T02:57:48.067Z,12.48
2023-05-08T03:00:27.460Z,12.49
2023-05-08T03:02:59.566Z,12.51
2023-05-08T03:05:31.747Z,12.53
2023-05-08T03:08:06.529Z,12.55
2023-05-08T03:10:35.476Z,12.56
2023-05-08T03:13:09.154Z,12.55
2023-05-08T03:15:42.393Z,12.55
2023-05-08T03:18:13.810Z,12.47
2023-05-08T03:20:45.053Z,12.46
2023-05-08T03:23:15.365Z,12.39
2023-05-08T03:25:43.863Z,12.40
2023-05-08T03:28:12.316Z,12.29
2023-05-08T03:30:42.085Z,12.33
2023-05-08T03:33:11.650Z,12.31
2023-05-08T03:35:39.925Z,12.30
2023-05-08T03:38:08.303Z,12.31
2023-05-08T03:40:38.856Z,12.35
2023-05-08T03:43:07.979Z,12.35
2023-05-08T03:45:37.043Z,12.35
2023-05-08T03:48:06.730Z,12.41
2023-05-08T03:50:38.488Z,12.38
2023-05-08T03:53:05.890Z,12.39
2023-05-08T03:55:33.164Z,12.37
2023-05-08T03:58:06.298Z,12.39
2023-05-08T04:01:02.508Z,12.38
2023-05-08T04:03:54.448Z,12.33
2023-05-08T04:06:30.702Z,12.35
2023-05-08T04:09:18.225Z,12.37
2023-05-08T04:11:50.837Z,12.38
2023-05-08T04:14:20.524Z,12.34
2023-05-08T04:16:53.583Z,12.33
2023-05-08T04:19:25.907Z,12.32
2023-05-08T04:21:57.255Z,12.26
2023-05-08T04:24:25.744Z,12.24
2023-05-08T04:26:53.678Z,12.22
2023-05-08T04:29:21.172Z,12.18
2023-05-08T04:31:50.841Z,12.13
2023-05-08T04:34:18.623Z,12.15
2023-05-08T04:36:46.073Z,12.18
2023-05-08T04:39:13.221Z,12.18
2023-05-08T04:41:40.362Z,12.19
2023-05-08T04:44:07.729Z,12.19
2023-05-08T04:46:34.931Z,12.22
2023-05-08T04:49:02.124Z,12.24
2023-05-08T04:51:29.482Z,12.22
2023-05-08T04:53:56.737Z,12.30
2023-05-08T04:56:23.749Z,12.35
2023-05-08T04:58:51.278Z,12.44
2023-05-08T05:01:18.363Z,12.56
2023-05-08T05:03:45.911Z,12.63
2023-05-08T05:06:12.991Z,12.70
2023-05-08T05:08:40.148Z,12.76
2023-05-08T05:11:07.279Z,12.80
2023-05-08T05:13:34.537Z,12.90
2023-05-08T05:16:02.003Z,13.04
2023-05-08T05:18:29.189Z,13.11
2023-05-08T05:20:58.649Z,13.21
2023-05-08T05:23:25.801Z,13.28
2023-05-08T05:25:53.355Z,13.38
2023-05-08T05:28:20.393Z,13.56
2023-05-08T05:30:48.408Z,13.60
2023-05-08T05:33:15.918Z,13.69
2023-05-08T05:35:43.397Z,13.80
2023-05-08T05:38:10.871Z,13.95
2023-05-08T05:40:38.020Z,14.03
2023-05-08T05:43:05.905Z,14.11
2023-05-08T05:45:33.573Z,14.20
2023-05-08T05:48:02.163Z,14.24
2023-05-08T05:50:29.320Z,14.31
2023-05-08T05:52:56.408Z,14.33
2023-05-08T05:55:23.886Z,14.44
2023-05-08T05:57:51.104Z,14.51
2023-05-08T06:00:18.627Z,14.57
2023-05-08T06:02:46.310Z,14.57
2023-05-08T06:05:13.796Z,14.68
2023-05-08T06:07:41.082Z,14.72
2023-05-08T06:10:08.491Z,14.83
2023-05-08T06:12:35.910Z,14.80
2023-05-08T06:15:03.239Z,14.91
2023-05-08T06:17:30.317Z,14.99
2023-05-08T06:19:57.501Z,15.10
2023-05-08T06:22:25.551Z,15.19
2023-05-08T06:24:55.700Z,15.29
2023-05-08T06:27:23.178Z,15.42
2023-05-08T06:29:53.068Z,15.60
2023-05-08T06:32:21.329Z,15.70
2023-05-08T06:34:48.684Z,15.81
2023-05-08T06:37:15.998Z,15.86
2023-05-08T06:39:43.318Z,15.97
2023-05-08T06:42:10.398Z,15.94
2023-05-08T06:44:38.645Z,15.98
2023-05-08T06:47:06.076Z,15.87
2023-05-08T06:49:33.109Z,15.89
2023-05-08T06:52:00.639Z,15.83
2023-05-08T06:54:27.813Z,15.82
2023-05-08T06:56:54.947Z,15.84
2023-05-08T06:59:23.325Z,15.90
2023-05-08T07:01:50.885Z,16.08
2023-05-08T07:04:18.101Z,16.07
2023-05-08T07:06:45.228Z,16.14
2023-05-08T07:09:12.981Z,16.28
2023-05-08T07:11:40.060Z,16.41
2023-05-08T07:14:07.190Z,16.40
2023-05-08T07:16:34.794Z,16.46
2023-05-08T07:19:02.057Z,16.50
2023-05-08T07:21:29.658Z,16.42
2023-05-08T07:23:56.912Z,16.34
2023-05-08T07:26:23.952Z,16.33
2023-05-08T07:28:51.272Z,16.40
2023-05-08T07:31:18.344Z,16.46
2023-05-08T07:33:47.069Z,16.50
2023-05-08T07:36:14.115Z,16.51
2023-05-08T07:38:41.246Z,16.64
2023-05-08T07:41:08.551Z,16.75
2023-05-08T07:43:35.982Z,16.82
2023-05-08T07:46:03.435Z,16.75
2023-05-08T07:48:30.503Z,16.69
2023-05-08T07:50:57.584Z,16.62
2023-05-08T07:53:24.811Z,16.67
2023-05-08T07:55:51.999Z,16.80
2023-05-08T07:58:19.355Z,16.93
2023-05-08T08:00:47.107Z,17.02
2023-05-08T08:03:14.319Z,16.90
2023-05-08T08:05:42.040Z,17.01
2023-05-08T08:08:09.078Z,16.96
2023-05-08T08:10:36.364Z,16.90
2023-05-08T08:13:03.385Z,16.92
2023-05-08T08:15:30.639Z,17.02
2023-05-08T08:17:57.643Z,17.12
2023-05-08T08:20:24.726Z,17.30
2023-05-08T08:22:51.857Z,17.53
2023-05-08T08:25:19.020Z,17.60
2023-05-08T08:27:46.273Z,17.70
2023-05-08T08:30:18.079Z,17.74
2023-05-08T08:32:46.996Z,17.90
2023-05-08T08:35:14.755Z,17.93
2023-05-08T08:37:43.155Z,18.01
2023-05-08T08:40:10.574Z,18.01
2023-05-08T08:42:37.780Z,17.99
2023-05-08T08:45:07.050Z,18.12
2023-05-08T08:47:37.798Z,17.98
2023-05-08T08:50:06.315Z,17.92
2023-05-08T08:53:00.666Z,18.21
2023-05-08T08:55:29.344Z,18.03
2023-05-08T08:58:11.327Z,17.92
2023-05-08T09:00:39.441Z,17.92
2023-05-08T09:03:07.954Z,18.08
2023-05-08T09:05:35.910Z,18.00
2023-05-08T09:08:03.244Z,17.95
2023-05-08T09:10:30.326Z,17.99
2023-05-08T09:12:57.589Z,17.96
2023-05-08T09:15:24.853Z,18.22
2023-05-08T09:17:51.968Z,18.14
2023-05-08T09:20:19.510Z,18.25
2023-05-08T09:22:47.132Z,18.29
2023-05-08T09:25:14.471Z,18.50
2023-05-08T09:27:41.840Z,18.69
2023-05-08T09:30:11.129Z,18.61
2023-05-08T09:32:40.030Z,18.33
2023-05-08T09:35:08.618Z,18.64
2023-05-08T09:37:40.353Z,18.87
2023-05-08T09:40:28.336Z,19.10
2023-05-08T09:42:55.476Z,18.98
2023-05-08T09:45:31.244Z,18.85
2023-05-08T09:47:58.864Z,18.84
2023-05-08T09:50:26.080Z,18.77
2023-05-08T09:52:53.585Z,18.95
2023-05-08T09:55:20.804Z,19.00
2023-05-08T09:57:59.756Z,19.13
2023-05-08T10:00:28.892Z,19.24
2023-05-08T10:03:03.663Z,19.36
2023-05-08T10:05:33.118Z,19.61
2023-05-08T10:08:17.884Z,19.92
2023-05-08T10:10:44.992Z,19.97
2023-05-08T10:13:12.089Z,19.76
2023-05-08T10:15:42.802Z,19.51
2023-05-08T10:18:12.180Z,19.43
2023-05-08T10:20:41.630Z,18.98
2023-05-08T10:23:11.551Z,18.81
2023-05-08T10:25:45.318Z,18.80
2023-05-08T10:28:39.869Z,18.95
2023-05-08T10:31:08.200Z,18.94
2023-05-08T10:33:40.508Z,18.72
2023-05-08T10:36:10.003Z,18.53
2023-05-08T10:38:41.495Z,18.52
2023-05-08T10:41:11.030Z,18.57
2023-05-08T10:43:42.215Z,18.41
2023-05-08T10:46:22.958Z,18.60
2023-05-08T10:49:23.996Z,18.97
2023-05-08T10:51:55.868Z,19.40
2023-05-08T10:54:38.592Z,19.57
2023-05-08T10:57:10.656Z,19.83
2023-05-08T10:59:38.426Z,20.07
2023-05-08T11:02:07.921Z,20.27
2023-05-08T11:04:35.823Z,20.52
2023-05-08T11:07:04.516Z,20.68
2023-05-08T11:09:43.578Z,20.76
2023-05-08T11:12:22.880Z,20.71
2023-05-08T11:15:06.241Z,20.43
2023-05-08T11:17:34.587Z,20.33
2023-05-08T11:20:07.060Z,20.14
2023-05-08T11:22:35.755Z,19.93
2023-05-08T11:25:10.436Z,19.84
2023-05-08T11:27:38.825Z,20.02
2023-05-08T11:30:41.338Z,20.16
2023-05-08T11:33:08.398Z,20.19
2023-05-08T11:35:54.040Z,20.03
2023-05-08T11:38:36.260Z,19.92
2023-05-08T11:41:10.255Z,19.87
2023-05-08T11:43:44.309Z,20.12
2023-05-08T11:46:17.582Z,20.12
2023-05-08T11:48:45.207Z,20.07
2023-05-08T11:51:13.694Z,19.96
2023-05-08T11:53:41.018Z,20.17
2023-05-08T11:56:08.747Z,19.91
2023-05-08T11:58:36.873Z,20.35
2023-05-08T12:01:04.590Z,20.45
2023-05-08T12:03:32.188Z,20.53
2023-05-08T12:06:00.580Z,20.37
2023-05-08T12:08:27.723Z,20.15
2023-05-08T12:10:59.898Z,20.32
2023-05-08T12:13:30.221Z,20.35
2023-05-08T12:16:00.010Z,20.32
2023-05-08T12:18:29.270Z,20.37
2023-05-08T12:20:58.573Z,20.15
2023-05-08T12:23:27.213Z,19.99
2023-05-08T12:25:55.564Z,20.23
2023-05-08T12:28:22.898Z,20.44
2023-05-08T12:30:50.472Z,20.56
2023-05-08T12:33:19.277Z,20.85
2023-05-08T12:35:46.488Z,21.19
2023-05-08T12:38:13.772Z,21.30
2023-05-08T12:40:43.891Z,21.24
2023-05-08T12:43:11.433Z,21.17
2023-05-08T12:45:40.491Z,21.09
2023-05-08T12:48:15.886Z,21.42
2023-05-08T12:50:45.094Z,21.77
2023-05-08T12:53:14.040Z,21.72
2023-05-08T12:55:52.739Z,21.37
2023-05-08T12:58:24.035Z,20.87
2023-05-08T13:00:52.857Z,20.96
2023-05-08T13:03:25.718Z,21.81
2023-05-08T13:05:55.120Z,22.50
2023-05-08T13:08:37.074Z,23.16
2023-05-08T13:11:06.720Z,23.83
2023-05-08T13:13:35.895Z,23.85
2023-05-08T13:16:07.555Z,23.92
2023-05-08T13:18:36.984Z,23.45
2023-05-08T13:21:04.559Z,22.89
2023-05-08T13:23:31.660Z,22.30
2023-05-08T13:25:58.695Z,22.22
2023-05-08T13:28:25.763Z,21.87
2023-05-08T13:30:52.844Z,21.48
2023-05-08T13:33:19.981Z,21.35
2023-05-08T13:35:47.516Z,21.14
2023-05-08T13:38:14.635Z,21.13
2023-05-08T13:40:41.770Z,21.04
2023-05-08T13:43:08.922Z,20.97
2023-05-08T13:45:36.119Z,21.49
2023-05-08T13:48:03.355Z,21.76
2023-05-08T13:50:30.566Z,21.84
2023-05-08T13:52:57.621Z,21.51
2023-05-08T13:55:24.759Z,21.07
2023-05-08T13:57:52.115Z,21.05
2023-05-08T14:00:19.638Z,20.98
2023-05-08T14:02:48.812Z,20.88
2023-05-08T14:05:17.447Z,20.92
2023-05-08T14:07:45.410Z,21.07
2023-05-08T14:10:12.555Z,21.38
2023-05-08T14:12:40.387Z,21.58
2023-05-08T14:15:08.210Z,21.95
2023-05-08T14:17:36.220Z,22.22
2023-05-08T14:20:04.720Z,22.34
2023-05-08T14:22:31.850Z,22.40
2023-05-08T14:24:58.944Z,22.17
2023-05-08T14:27:26.101Z,21.90
2023-05-08T14:29:54.065Z,21.71
2023-05-08T14:32:21.309Z,21.53
2023-05-08T14:34:48.344Z,21.31
2023-05-08T14:37:19.334Z,21.16
2023-05-08T14:39:46.396Z,21.10
2023-05-08T14:42:22.789Z,20.96
2023-05-08T14:44:51.599Z,20.80
2023-05-08T14:47:18.916Z,20.68
2023-05-08T14:49:46.075Z,20.63
2023-05-08T14:52:13.331Z,20.64
2023-05-08T14:54:40.605Z,20.72
2023-05-08T14:57:07.771Z,20.83
2023-05-08T14:59:34.782Z,20.96
2023-05-08T15:02:02.018Z,21.03
2023-05-08T15:04:29.100Z,21.09
2023-05-08T15:06:56.190Z,21.02
2023-05-08T15:09:23.395Z,20.91
2023-05-08T15:11:50.557Z,21.06
2023-05-08T15:14:18.000Z,21.04
2023-05-08T15:16:45.057Z,21.06
2023-05-08T15:19:12.282Z,21.02
2023-05-08T15:21:39.303Z,20.95
2023-05-08T15:24:07.039Z,20.91
2023-05-08T15:26:34.391Z,20.90
2023-05-08T15:29:02.001Z,20.68
2023-05-08T15:31:29.110Z,20.58
2023-05-08T15:33:56.212Z,20.58
2023-05-08T15:36:23.328Z,20.55
2023-05-08T15:38:50.686Z,20.58
2023-05-08T15:41:17.825Z,20.60
2023-05-08T15:43:45.970Z,20.65
2023-05-08T15:46:13.120Z,20.73
2023-05-08T15:48:40.244Z,20.74
2023-05-08T15:51:07.389Z,20.78
2023-05-08T15:53:35.976Z,20.82
2023-05-08T15:56:06.106Z,20.94
2023-05-08T15:58:33.209Z,20.99
2023-05-08T16:01:00.803Z,21.03
2023-05-08T16:03:28.185Z,21.02
2023-05-08T16:05:55.473Z,20.99
2023-05-08T16:08:22.744Z,20.93
2023-05-08T16:10:49.863Z,20.75
2023-05-08T16:13:17.524Z,20.84
2023-05-08T16:15:44.691Z,20.87
2023-05-08T16:18:11.897Z,20.61
2023-05-08T16:20:41.706Z,20.52
2023-05-08T16:23:08.900Z,20.44
2023-05-08T16:25:36.342Z,20.56
2023-05-08T16:28:03.947Z,20.56
2023-05-08T16:30:31.058Z,20.50
2023-05-08T16:32:58.203Z,20.51
2023-05-08T16:35:25.372Z,20.16
2023-05-08T16:37:54.782Z,19.98
2023-05-08T16:40:21.883Z,19.96
2023-05-08T16:42:48.914Z,19.91
2023-05-08T16:45:16.266Z,19.82
2023-05-08T16:47:43.376Z,19.66
2023-05-08T16:50:11.032Z,19.40
2023-05-08T16:52:38.482Z,19.35
2023-05-08T16:55:06.242Z,19.42
2023-05-08T16:57:34.025Z,19.41
2023-05-08T17:00:01.777Z,19.36
2023-05-08T17:02:28.910Z,19.24
2023-05-08T17:04:56.014Z,19.25
2023-05-08T17:07:23.570Z,19.23
2023-05-08T17:09:56.039Z,19.18
2023-05-08T17:12:23.910Z,19.35
2023-05-08T17:14:51.064Z,19.46
2023-05-08T17:17:18.133Z,19.54
2023-05-08T17:19:45.419Z,19.39
2023-05-08T17:22:13.149Z,19.33
2023-05-08T17:24:40.328Z,19.35
2023-05-08T17:27:07.851Z,19.34
2023-05-08T17:29:35.903Z,19.27
2023-05-08T17:32:03.070Z,19.26
2023-05-08T17:34:30.265Z,19.24
2023-05-08T17:36:57.433Z,19.19
2023-05-08T17:39:24.583Z,19.10
2023-05-08T17:41:51.950Z,18.95
2023-05-08T17:44:19.127Z,18.87
2023-05-08T17:46:46.477Z,18.92
2023-05-08T17:49:14.779Z,18.80
2023-05-08T17:51:43.438Z,18.85
2023-05-08T17:54:10.587Z,18.88
2023-05-08T17:56:37.651Z,18.77
2023-05-08T17:59:05.053Z,18.90
2023-05-08T18:01:32.267Z,18.94
2023-05-08T18:03:59.427Z,18.96
2023-05-08T18:06:26.549Z,18.95
2023-05-08T18:08:53.684Z,18.95
2023-05-08T18:11:23.234Z,18.94
2023-05-08T18:13:52.901Z,18.92
2023-05-08T18:16:22.509Z,18.89
2023-05-08T18:18:50.080Z,18.81
2023-05-08T18:21:20.060Z,18.79
2023-05-08T18:23:47.768Z,18.71
2023-05-08T18:26:16.192Z,18.75
2023-05-08T18:28:44.148Z,18.77
2023-05-08T18:31:11.902Z,18.74
2023-05-08T18:33:39.290Z,18.70
2023-05-08T18:36:07.339Z,18.62
2023-05-08T18:38:35.606Z,18.48
2023-05-08T18:41:03.945Z,18.47
2023-05-08T18:43:31.051Z,18.38
2023-05-08T18:46:00.839Z,18.35
2023-05-08T18:48:29.296Z,18.25
2023-05-08T18:50:58.502Z,18.22
2023-05-08T18:53:25.882Z,18.19
2023-05-08T18:55:53.092Z,18.14
2023-05-08T18:58:20.539Z,18.14
2023-05-08T19:00:47.738Z,18.07
2023-05-08T19:03:15.019Z,18.02
2023-05-08T19:05:42.129Z,18.01
2023-05-08T19:08:09.295Z,17.97
2023-05-08T19:10:36.341Z,17.88
2023-05-08T19:13:04.132Z,17.92
2023-05-08T19:15:31.331Z,17.85
2023-05-08T19:17:58.429Z,17.88
2023-05-08T19:20:25.667Z,17.77
2023-05-08T19:22:52.857Z,17.74
2023-05-08T19:25:20.149Z,17.73
2023-05-08T19:27:49.910Z,17.66
2023-05-08T19:30:17.245Z,17.66
2023-05-08T19:32:44.359Z,17.64
2023-05-08T19:35:11.456Z,17.61
2023-05-08T19:37:38.517Z,17.54
2023-05-08T19:40:06.461Z,17.45
2023-05-08T19:42:35.170Z,17.42
2023-05-08T19:45:02.276Z,17.38
2023-05-08T19:47:29.381Z,17.38
2023-05-08T19:49:56.455Z,17.35
2023-05-08T19:52:23.596Z,17.31
2023-05-08T19:54:51.024Z,17.27
2023-05-08T19:57:18.130Z,17.21
2023-05-08T19:59:45.156Z,17.18
2023-05-08T20:02:12.212Z,17.13
2023-05-08T20:04:57.501Z,17.07
2023-05-08T20:07:26.381Z,16.98
2023-05-08T20:09:53.579Z,16.95
2023-05-08T20:12:20.677Z,16.92
2023-05-08T20:14:47.792Z,16.88
2023-05-08T20:17:14.898Z,16.89
2023-05-08T20:19:42.025Z,16.85
2023-05-08T20:22:09.193Z,16.81
2023-05-08T20:24:36.359Z,16.67
2023-05-08T20:27:03.395Z,16.45
2023-05-08T20:29:30.612Z,16.37
2023-05-08T20:31:57.664Z,16.39
2023-05-08T20:34:24.790Z,16.42
2023-05-08T20:36:51.904Z,16.42
2023-05-08T20:39:19.008Z,16.43
2023-05-08T20:41:46.161Z,16.48
2023-05-08T20:44:17.054Z,16.53
2023-05-08T20:46:44.154Z,16.49
2023-05-08T20:49:11.182Z,16.20
2023-05-08T20:51:38.441Z,16.30
2023-05-08T20:54:05.601Z,16.32
2023-05-08T20:56:32.750Z,16.35
2023-05-08T20:58:59.820Z,16.32
2023-05-08T21:01:26.935Z,16.32
2023-05-08T21:03:54.022Z,16.40
2023-05-08T21:06:21.150Z,16.44
2023-05-08T21:08:48.240Z,16.42
2023-05-08T21:11:16.363Z,16.48
2023-05-08T21:13:46.170Z,16.40
2023-05-08T21:16:13.249Z,16.49
2023-05-08T21:18:40.568Z,16.51
2023-05-08T21:21:25.540Z,16.56
2023-05-08T21:23:52.917Z,16.55
2023-05-08T21:26:23.311Z,16.59
2023-05-08T21:28:52.425Z,16.60
2023-05-08T21:31:19.960Z,16.59
2023-05-08T21:33:47.587Z,16.60
2023-05-08T21:36:14.723Z,16.57
2023-05-08T21:38:41.843Z,16.58
2023-05-08T21:41:09.000Z,16.57
2023-05-08T21:43:36.937Z,16.55
2023-05-08T21:46:05.483Z,16.56
2023-05-08T21:48:33.581Z,16.57
2023-05-08T21:51:00.984Z,16.56
2023-05-08T21:53:28.220Z,16.59
2023-05-08T21:55:55.361Z,16.59
2023-05-08T21:58:22.441Z,16.56
2023-05-08T22:00:49.459Z,16.61
2023-05-08T22:03:16.659Z,16.56
2023-05-08T22:05:43.852Z,16.59
2023-05-08T22:08:11.102Z,16.59
2023-05-08T22:10:38.265Z,16.58
2023-05-08T22:13:06.437Z,16.57
2023-05-08T22:15:34.289Z,16.57
2023-05-08T22:18:02.871Z,16.54
2023-05-08T22:20:30.128Z,16.50
2023-05-08T22:22:57.280Z,16.42
2023-05-08T22:25:25.559Z,16.48
2023-05-08T22:27:52.862Z,16.43
2023-05-08T22:30:19.976Z,16.43
2023-05-08T22:32:55.314Z,16.44
2023-05-08T22:35:24.370Z,16.42
2023-05-08T22:37:52.548Z,16.37
2023-05-08T22:40:21.020Z,16.34
2023-05-08T22:42:48.549Z,16.28
2023-05-08T22:45:16.634Z,16.22
2023-05-08T22:47:44.150Z,16.19
2023-05-08T22:50:11.782Z,16.12
2023-05-08T22:52:39.456Z,16.09
2023-05-08T22:55:07.779Z,16.10
2023-05-08T22:57:35.453Z,16.12
2023-05-08T23:00:02.765Z,16.07
2023-05-08T23:02:34.416Z,16.05
2023-05-08T23:05:02.304Z,15.99
2023-05-08T23:07:29.683Z,15.94
2023-05-08T23:09:56.736Z,15.89
2023-05-08T23:12:23.822Z,15.89
2023-05-08T23:14:51.824Z,15.84
2023-05-08T23:17:18.897Z,15.77
2023-05-08T23:19:46.279Z,15.82
2023-05-08T23:22:13.519Z,15.79
2023-05-08T23:24:40.621Z,15.78
2023-05-08T23:27:07.759Z,15.77
2023-05-08T23:29:35.432Z,15.74
2023-05-08T23:32:02.741Z,15.75
2023-05-08T23:34:29.822Z,15.75
2023-05-08T23:36:57.051Z,15.73
2023-05-08T23:39:24.122Z,15.69
2023-05-08T23:41:51.139Z,15.72
2023-05-08T23:44:18.198Z,15.69
2023-05-08T23:46:46.331Z,15.68
2023-05-08T23:49:13.588Z,15.64
2023-05-08T23:51:40.703Z,15.61
2023-05-08T23:54:08.173Z,15.58
2023-05-08T23:56:35.794Z,15.61
2023-05-08T23:59:02.962Z,15.66
